createdAt,value
2022-10-31T00:01:32.358Z,15.80
2022-10-31T00:04:04.856Z,15.79
2022-10-31T00:06:37.292Z,15.78
2022-10-31T00:09:09.431Z,15.77
2022-10-31T00:11:41.848Z,15.75
2022-10-31T00:14:14.163Z,15.72
2022-10-31T00:16:46.288Z,15.71
2022-10-31T00:19:18.565Z,15.65
2022-10-31T00:21:50.734Z,15.60
2022-10-31T00:24:22.894Z,15.57
2022-10-31T00:26:55.032Z,15.55
2022-10-31T00:29:27.158Z,15.53
2022-10-31T00:31:59.335Z,15.51
2022-10-31T00:34:31.472Z,15.48
2022-10-31T00:37:03.621Z,15.47
2022-10-31T00:39:35.860Z,15.43
2022-10-31T00:42:08.284Z,15.39
2022-10-31T00:44:40.589Z,15.34
2022-10-31T00:47:12.717Z,15.28
2022-10-31T00:49:44.886Z,15.28
2022-10-31T00:52:17.164Z,15.30
2022-10-31T00:54:49.395Z,15.33
2022-10-31T00:57:21.584Z,15.36
2022-10-31T00:59:53.719Z,15.39
2022-10-31T01:02:26.076Z,15.41
2022-10-31T01:04:58.382Z,15.42
2022-10-31T01:07:30.586Z,15.42
2022-10-31T01:10:02.716Z,15.39
2022-10-31T01:12:40.268Z,15.36
2022-10-31T01:15:16.400Z,15.34
2022-10-31T01:17:48.565Z,15.31
2022-10-31T01:20:21.446Z,15.28
2022-10-31T01:22:53.588Z,15.27
2022-10-31T01:25:25.743Z,15.24
2022-10-31T01:27:58.749Z,15.23
2022-10-31T01:30:31.278Z,15.22
2022-10-31T01:33:03.425Z,15.22
2022-10-31T01:35:35.606Z,15.23
2022-10-31T01:38:07.747Z,15.23
2022-10-31T01:40:40.039Z,15.21
2022-10-31T01:43:16.606Z,15.20
2022-10-31T01:45:53.778Z,15.17
2022-10-31T01:48:32.410Z,15.13
2022-10-31T01:51:06.123Z,15.10
2022-10-31T01:53:39.291Z,15.08
2022-10-31T01:56:12.777Z,15.07
2022-10-31T01:58:47.619Z,15.06
2022-10-31T02:01:20.830Z,15.06
2022-10-31T02:03:53.590Z,15.06
2022-10-31T02:06:34.725Z,15.05
2022-10-31T02:09:08.513Z,15.02
2022-10-31T02:11:43.491Z,15.01
2022-10-31T02:14:16.094Z,15.00
2022-10-31T02:16:48.262Z,14.98
2022-10-31T02:19:27.693Z,14.97
2022-10-31T02:22:07.031Z,14.97
2022-10-31T02:25:04.504Z,14.98
2022-10-31T02:28:03.782Z,15.00
2022-10-31T02:30:46.049Z,15.02
2022-10-31T02:33:30.064Z,15.03
2022-10-31T02:36:13.777Z,15.03
2022-10-31T02:39:00.694Z,15.03
2022-10-31T02:41:40.210Z,15.00
2022-10-31T02:44:19.054Z,14.96
2022-10-31T02:46:56.771Z,14.96
2022-10-31T02:49:36.364Z,14.94
2022-10-31T02:52:21.073Z,14.90
2022-10-31T02:54:53.938Z,14.84
2022-10-31T02:57:31.994Z,14.80
2022-10-31T03:00:07.092Z,14.73
2022-10-31T03:03:02.006Z,14.67
2022-10-31T03:05:55.855Z,14.62
2022-10-31T03:08:34.392Z,14.59
2022-10-31T03:11:09.243Z,14.58
2022-10-31T03:13:47.738Z,14.57
2022-10-31T03:16:29.823Z,14.55
2022-10-31T03:19:05.935Z,14.53
2022-10-31T03:21:42.559Z,14.52
2022-10-31T03:24:17.357Z,14.49
2022-10-31T03:26:53.958Z,14.49
2022-10-31T03:29:30.630Z,14.50
2022-10-31T03:32:08.440Z,14.50
2022-10-31T03:34:44.061Z,14.48
2022-10-31T03:37:20.043Z,14.45
2022-10-31T03:39:56.205Z,14.41
2022-10-31T03:42:31.355Z,14.40
2022-10-31T03:45:08.710Z,14.40
2022-10-31T03:47:43.349Z,14.39
2022-10-31T03:50:18.467Z,14.38
2022-10-31T03:52:54.133Z,14.34
2022-10-31T03:55:32.450Z,14.30
2022-10-31T03:58:10.145Z,14.27
2022-10-31T04:00:46.747Z,14.22
2022-10-31T04:03:24.328Z,14.18
2022-10-31T04:05:59.347Z,14.15
2022-10-31T04:08:36.430Z,14.11
2022-10-31T04:11:10.746Z,14.07
2022-10-31T04:13:46.197Z,14.03
2022-10-31T04:16:20.098Z,14.02
2022-10-31T04:18:52.587Z,13.99
2022-10-31T04:21:31.711Z,13.96
2022-10-31T04:24:03.943Z,13.94
2022-10-31T04:26:36.315Z,13.91
2022-10-31T04:29:08.530Z,13.89
2022-10-31T04:31:40.767Z,13.87
2022-10-31T04:34:13.055Z,13.83
2022-10-31T04:36:45.226Z,13.81
2022-10-31T04:39:19.417Z,13.77
2022-10-31T04:41:55.098Z,13.72
2022-10-31T04:44:27.350Z,13.68
2022-10-31T04:46:59.545Z,13.64
2022-10-31T04:49:31.757Z,13.63
2022-10-31T04:52:03.922Z,13.63
2022-10-31T04:54:36.068Z,13.57
2022-10-31T04:57:08.319Z,13.50
2022-10-31T04:59:40.468Z,13.46
2022-10-31T05:02:12.952Z,13.43
2022-10-31T05:04:45.172Z,13.41
2022-10-31T05:07:17.391Z,13.38
2022-10-31T05:09:49.545Z,13.38
2022-10-31T05:12:21.753Z,13.36
2022-10-31T05:14:53.899Z,13.35
2022-10-31T05:17:26.094Z,13.33
2022-10-31T05:19:58.376Z,13.32
2022-10-31T05:22:30.597Z,13.34
2022-10-31T05:25:02.771Z,13.37
2022-10-31T05:27:34.978Z,13.43
2022-10-31T05:30:08.746Z,13.49
2022-10-31T05:32:44.578Z,13.56
2022-10-31T05:35:16.339Z,13.61
2022-10-31T05:37:48.583Z,13.69
2022-10-31T05:40:22.018Z,13.81
2022-10-31T05:42:57.851Z,13.98
2022-10-31T05:45:30.540Z,14.18
2022-10-31T05:48:04.266Z,14.32
2022-10-31T05:50:36.956Z,14.48
2022-10-31T05:53:10.027Z,14.64
2022-10-31T05:55:42.819Z,14.84
2022-10-31T05:58:15.087Z,15.02
2022-10-31T06:00:47.201Z,15.33
2022-10-31T06:03:19.610Z,15.68
2022-10-31T06:05:54.981Z,16.09
2022-10-31T06:08:28.486Z,16.45
2022-10-31T06:11:00.678Z,16.63
2022-10-31T06:13:32.905Z,16.86
2022-10-31T06:16:05.336Z,17.12
2022-10-31T06:18:37.591Z,17.38
2022-10-31T06:21:11.533Z,17.54
2022-10-31T06:23:45.857Z,17.70
2022-10-31T06:26:18.120Z,17.93
2022-10-31T06:28:50.279Z,18.13
2022-10-31T06:31:22.657Z,18.34
2022-10-31T06:33:54.777Z,18.58
2022-10-31T06:39:00.115Z,19.12
2022-10-31T06:41:32.427Z,19.36
2022-10-31T06:44:08.040Z,19.61
2022-10-31T06:46:41.284Z,19.91
2022-10-31T06:49:13.414Z,20.18
2022-10-31T06:51:45.784Z,20.37
2022-10-31T06:54:18.046Z,20.45
2022-10-31T06:56:50.996Z,20.44
2022-10-31T06:59:23.139Z,20.40
2022-10-31T07:01:55.533Z,20.30
2022-10-31T07:04:27.797Z,20.20
2022-10-31T07:07:00.046Z,20.12
2022-10-31T07:09:32.258Z,20.03
2022-10-31T07:12:04.593Z,19.96
2022-10-31T07:14:36.731Z,19.87
2022-10-31T07:17:08.865Z,19.79
2022-10-31T07:19:40.963Z,19.75
2022-10-31T07:22:13.182Z,19.66
2022-10-31T07:24:45.443Z,19.64
2022-10-31T07:27:17.722Z,19.59
2022-10-31T07:29:49.867Z,19.64
2022-10-31T07:32:22.167Z,19.74
2022-10-31T07:34:54.422Z,19.93
2022-10-31T07:37:29.464Z,20.10
2022-10-31T07:40:01.754Z,20.23
2022-10-31T07:42:38.573Z,20.28
2022-10-31T07:45:13.491Z,20.21
2022-10-31T07:47:47.486Z,20.21
2022-10-31T07:50:21.342Z,20.28
2022-10-31T07:53:02.753Z,20.33
2022-10-31T07:55:35.650Z,20.36
2022-10-31T07:58:09.539Z,20.34
2022-10-31T08:00:43.524Z,20.26
2022-10-31T08:03:17.825Z,20.11
2022-10-31T08:05:50.113Z,20.03
2022-10-31T08:08:22.401Z,20.02
2022-10-31T08:10:54.589Z,19.99
2022-10-31T08:13:26.806Z,19.97
2022-10-31T08:16:04.578Z,19.94
2022-10-31T08:18:38.571Z,19.91
2022-10-31T08:21:11.568Z,19.83
2022-10-31T08:23:43.680Z,19.83
2022-10-31T08:26:15.868Z,19.85
2022-10-31T08:28:48.023Z,19.84
2022-10-31T08:31:20.137Z,19.85
2022-10-31T08:33:54.398Z,19.82
2022-10-31T08:36:26.648Z,19.84
2022-10-31T08:39:01.884Z,19.82
2022-10-31T08:41:34.502Z,19.89
2022-10-31T08:44:06.894Z,19.96
2022-10-31T08:46:39.071Z,19.97
2022-10-31T08:49:11.286Z,20.00
2022-10-31T08:51:43.573Z,20.01
2022-10-31T08:54:15.858Z,19.99
2022-10-31T08:56:47.999Z,20.00
2022-10-31T08:59:20.157Z,20.03
2022-10-31T09:01:52.364Z,20.02
2022-10-31T09:04:24.750Z,19.97
2022-10-31T09:09:48.916Z,19.95
2022-10-31T09:12:21.207Z,20.00
2022-10-31T09:14:53.338Z,20.06
2022-10-31T09:17:27.824Z,20.14
2022-10-31T09:20:00.102Z,20.24
2022-10-31T09:22:32.343Z,20.27
2022-10-31T09:25:04.788Z,20.26
2022-10-31T09:27:36.969Z,20.27
2022-10-31T09:30:11.263Z,20.28
2022-10-31T09:32:43.538Z,20.32
2022-10-31T09:35:17.367Z,20.41
2022-10-31T09:37:55.682Z,20.45
2022-10-31T09:40:32.977Z,20.50
2022-10-31T09:43:15.213Z,20.64
2022-10-31T09:45:58.581Z,20.71
2022-10-31T09:48:47.062Z,20.84
2022-10-31T09:51:22.695Z,21.06
2022-10-31T09:54:02.630Z,21.29
2022-10-31T09:56:36.569Z,21.45
2022-10-31T09:59:14.750Z,21.67
2022-10-31T10:01:52.863Z,21.80
2022-10-31T10:04:40.425Z,21.90
2022-10-31T10:07:22.709Z,22.11
2022-10-31T10:09:54.870Z,22.26
2022-10-31T10:12:53.252Z,22.35
2022-10-31T10:15:57.417Z,22.45
2022-10-31T10:18:41.412Z,22.67
2022-10-31T10:21:26.058Z,22.85
2022-10-31T10:24:07.643Z,22.97
2022-10-31T10:26:44.973Z,23.03
2022-10-31T10:29:33.684Z,23.07
2022-10-31T10:32:13.304Z,22.96
2022-10-31T10:34:48.566Z,22.98
2022-10-31T10:37:33.796Z,23.05
2022-10-31T10:40:16.610Z,23.11
2022-10-31T10:43:15.299Z,23.15
2022-10-31T10:46:11.662Z,23.07
2022-10-31T10:48:51.318Z,22.94
2022-10-31T10:54:49.092Z,22.91
2022-10-31T10:57:33.351Z,22.87
2022-10-31T11:00:21.511Z,22.75
2022-10-31T11:02:54.516Z,22.66
2022-10-31T11:05:32.798Z,22.68
2022-10-31T11:08:05.723Z,22.72
2022-10-31T11:10:38.821Z,22.70
2022-10-31T11:13:25.986Z,22.68
2022-10-31T11:16:05.811Z,22.64
2022-10-31T11:18:39.828Z,22.66
2022-10-31T11:21:24.400Z,22.64
2022-10-31T11:24:06.538Z,22.63
2022-10-31T11:26:40.504Z,22.67
2022-10-31T11:29:19.199Z,22.64
2022-10-31T11:31:54.279Z,22.57
2022-10-31T11:34:33.103Z,22.56
2022-10-31T11:37:24.032Z,22.57
2022-10-31T11:39:58.533Z,22.52
2022-10-31T11:42:37.287Z,22.47
2022-10-31T11:45:18.865Z,22.40
2022-10-31T11:47:59.637Z,22.32
2022-10-31T11:50:38.277Z,22.26
2022-10-31T11:53:18.261Z,22.16
2022-10-31T11:56:02.360Z,22.07
2022-10-31T11:58:34.722Z,22.05
2022-10-31T12:01:07.118Z,22.03
2022-10-31T12:03:50.491Z,22.00
2022-10-31T12:06:27.106Z,21.98
2022-10-31T12:08:59.287Z,21.95
2022-10-31T12:11:48.950Z,21.91
2022-10-31T12:14:34.325Z,21.87
2022-10-31T12:17:14.632Z,21.84
2022-10-31T12:20:00.506Z,21.83
2022-10-31T12:22:42.250Z,21.80
2022-10-31T12:25:28.323Z,21.74
2022-10-31T12:28:09.048Z,21.62
2022-10-31T12:30:55.547Z,21.53
2022-10-31T12:33:52.174Z,21.45
2022-10-31T12:36:39.504Z,21.40
2022-10-31T12:39:33.144Z,21.39
2022-10-31T12:42:11.458Z,21.38
2022-10-31T12:45:03.837Z,21.37
2022-10-31T12:47:52.910Z,21.37
2022-10-31T12:50:43.286Z,21.38
2022-10-31T12:53:39.316Z,21.39
2022-10-31T12:56:22.422Z,21.42
2022-10-31T12:58:59.713Z,21.45
2022-10-31T13:01:37.174Z,21.46
2022-10-31T13:04:18.402Z,21.46
2022-10-31T13:06:53.510Z,21.47
2022-10-31T13:09:31.127Z,21.50
2022-10-31T13:12:10.165Z,21.54
2022-10-31T13:14:46.075Z,21.55
2022-10-31T13:17:27.707Z,21.56
2022-10-31T13:20:22.105Z,21.54
2022-10-31T13:22:57.021Z,21.52
2022-10-31T13:25:35.718Z,21.53
2022-10-31T13:28:21.071Z,21.55
2022-10-31T13:30:55.230Z,21.57
2022-10-31T13:33:32.045Z,21.60
2022-10-31T13:36:17.564Z,21.63
2022-10-31T13:38:54.221Z,21.65
2022-10-31T13:41:41.437Z,21.67
2022-10-31T13:44:19.896Z,21.69
2022-10-31T13:46:52.127Z,21.70
2022-10-31T13:49:39.305Z,21.68
2022-10-31T13:52:19.503Z,21.71
2022-10-31T13:54:57.155Z,21.71
2022-10-31T13:57:37.540Z,21.71
2022-10-31T14:00:27.991Z,21.72
2022-10-31T14:03:01.277Z,21.71
2022-10-31T14:05:35.486Z,21.71
2022-10-31T14:08:20.302Z,21.70
2022-10-31T14:10:55.135Z,21.68
2022-10-31T14:13:33.718Z,21.67
2022-10-31T14:16:08.341Z,21.65
2022-10-31T14:18:43.558Z,21.63
2022-10-31T14:21:29.375Z,21.62
2022-10-31T14:24:01.531Z,21.59
2022-10-31T14:26:40.044Z,21.56
2022-10-31T14:29:32.701Z,21.53
2022-10-31T14:32:19.377Z,21.51
2022-10-31T14:34:58.945Z,21.50
2022-10-31T14:37:50.987Z,21.48
2022-10-31T14:40:32.796Z,21.47
2022-10-31T14:43:38.487Z,21.43
2022-10-31T14:46:19.385Z,21.39
2022-10-31T14:49:07.214Z,21.36
2022-10-31T14:51:41.736Z,21.32
2022-10-31T14:54:19.586Z,21.28
2022-10-31T14:56:55.598Z,21.24
2022-10-31T14:59:32.699Z,21.22
2022-10-31T15:02:17.175Z,21.19
2022-10-31T15:04:53.487Z,21.16
2022-10-31T15:07:28.011Z,21.15
2022-10-31T15:10:02.338Z,21.13
2022-10-31T15:12:39.164Z,21.11
2022-10-31T15:15:21.400Z,21.08
2022-10-31T15:17:56.988Z,21.06
2022-10-31T15:20:35.703Z,21.03
2022-10-31T15:23:08.051Z,21.01
2022-10-31T15:25:40.198Z,20.97
2022-10-31T15:28:24.710Z,20.94
2022-10-31T15:30:58.407Z,20.89
2022-10-31T15:33:38.744Z,20.86
2022-10-31T15:36:27.707Z,20.82
2022-10-31T15:39:01.717Z,20.76
2022-10-31T15:41:37.427Z,20.71
2022-10-31T15:44:17.877Z,20.66
2022-10-31T15:46:57.150Z,20.62
2022-10-31T15:49:36.134Z,20.56
2022-10-31T15:52:14.084Z,20.51
2022-10-31T15:54:51.096Z,20.47
2022-10-31T15:57:23.561Z,20.44
2022-10-31T15:59:56.014Z,20.40
2022-10-31T16:02:29.627Z,20.36
2022-10-31T16:05:03.459Z,20.32
2022-10-31T16:07:35.920Z,20.27
2022-10-31T16:10:22.639Z,20.22
2022-10-31T16:12:55.526Z,20.18
2022-10-31T16:15:27.839Z,20.14
2022-10-31T16:18:01.743Z,20.10
2022-10-31T16:20:38.990Z,20.04
2022-10-31T16:23:18.881Z,19.98
2022-10-31T16:25:51.749Z,19.94
2022-10-31T16:28:30.201Z,19.90
2022-10-31T16:31:14.873Z,19.86
2022-10-31T16:33:47.166Z,19.79
2022-10-31T16:36:39.629Z,19.74
2022-10-31T16:39:12.143Z,19.71
2022-10-31T16:41:47.729Z,19.65
2022-10-31T16:44:19.819Z,19.61
2022-10-31T16:47:05.482Z,19.56
2022-10-31T16:49:37.654Z,19.51
2022-10-31T16:52:10.117Z,19.46
2022-10-31T16:54:42.318Z,19.41
2022-10-31T16:57:18.411Z,19.36
2022-10-31T16:59:55.033Z,19.30
2022-10-31T17:02:27.494Z,19.25
2022-10-31T17:04:59.872Z,19.17
2022-10-31T17:07:32.007Z,19.09
2022-10-31T17:10:04.160Z,19.01
2022-10-31T17:12:36.976Z,18.93
2022-10-31T17:15:16.287Z,18.85
2022-10-31T17:17:48.509Z,18.76
2022-10-31T17:20:25.253Z,18.69
2022-10-31T17:22:59.121Z,18.62
2022-10-31T17:25:33.206Z,18.55
2022-10-31T17:28:05.878Z,18.48
2022-10-31T17:30:39.127Z,18.41
2022-10-31T17:33:15.227Z,18.34
2022-10-31T17:35:47.435Z,18.28
2022-10-31T17:38:19.687Z,18.22
2022-10-31T17:40:52.032Z,18.15
2022-10-31T17:43:27.261Z,18.11
2022-10-31T17:46:02.177Z,18.04
2022-10-31T17:48:34.870Z,17.97
2022-10-31T17:51:08.464Z,17.90
2022-10-31T17:53:40.696Z,17.84
2022-10-31T17:56:12.896Z,17.78
2022-10-31T17:58:45.182Z,17.71
2022-10-31T18:01:20.750Z,17.65
2022-10-31T18:03:51.331Z,17.57
2022-10-31T18:06:23.719Z,17.48
2022-10-31T18:08:58.281Z,17.43
2022-10-31T18:11:30.506Z,17.39
2022-10-31T18:14:03.004Z,17.36
2022-10-31T18:19:16.262Z,17.28
2022-10-31T18:21:49.125Z,17.24
2022-10-31T18:24:21.524Z,17.21
2022-10-31T18:26:53.698Z,17.18
2022-10-31T18:29:26.041Z,17.16
2022-10-31T18:31:58.446Z,17.14
2022-10-31T18:34:30.548Z,17.11
2022-10-31T18:37:03.196Z,17.06
2022-10-31T18:39:35.411Z,17.02
2022-10-31T18:42:07.674Z,16.98
2022-10-31T18:44:39.937Z,16.95
2022-10-31T18:47:12.255Z,16.91
2022-10-31T18:49:44.409Z,16.87
2022-10-31T18:52:16.550Z,16.86
2022-10-31T18:54:48.759Z,16.82
2022-10-31T18:57:21.245Z,16.79
2022-10-31T18:59:53.517Z,16.77
2022-10-31T19:02:25.738Z,16.74
2022-10-31T19:04:58.152Z,16.71
2022-10-31T19:07:31.076Z,16.70
2022-10-31T19:10:03.331Z,16.67
2022-10-31T19:12:36.234Z,16.64
2022-10-31T19:15:10.222Z,16.61
2022-10-31T19:17:42.362Z,16.57
2022-10-31T19:20:15.740Z,16.53
2022-10-31T19:22:48.217Z,16.51
2022-10-31T19:25:20.598Z,16.45
2022-10-31T19:27:52.727Z,16.39
2022-10-31T19:30:25.015Z,16.34
2022-10-31T19:32:58.348Z,16.32
2022-10-31T19:35:30.561Z,16.29
2022-10-31T19:38:03.141Z,16.25
2022-10-31T19:40:37.402Z,16.21
2022-10-31T19:43:09.535Z,16.15
2022-10-31T19:45:41.799Z,16.13
2022-10-31T19:48:13.989Z,16.13
2022-10-31T19:50:46.131Z,16.14
2022-10-31T19:53:18.292Z,16.14
2022-10-31T19:55:50.449Z,16.12
2022-10-31T19:58:22.573Z,16.10
2022-10-31T20:00:54.957Z,16.08
2022-10-31T20:03:27.383Z,16.05
2022-10-31T20:05:59.575Z,16.02
2022-10-31T20:08:34.560Z,15.99
2022-10-31T20:11:08.217Z,15.97
2022-10-31T20:13:40.504Z,15.96
2022-10-31T20:16:14.385Z,15.95
2022-10-31T20:18:47.077Z,15.93
2022-10-31T20:21:21.586Z,15.91
2022-10-31T20:23:58.457Z,15.89
2022-10-31T20:26:32.067Z,15.87
2022-10-31T20:29:05.478Z,15.83
2022-10-31T20:31:40.108Z,15.78
2022-10-31T20:34:12.358Z,15.75
2022-10-31T20:36:44.525Z,15.70
2022-10-31T20:39:16.696Z,15.67
2022-10-31T20:41:48.850Z,15.66
2022-10-31T20:44:21.196Z,15.65
2022-10-31T20:46:54.218Z,15.64
2022-10-31T20:49:26.474Z,15.63
2022-10-31T20:51:58.586Z,15.60
2022-10-31T20:54:30.799Z,15.58
2022-10-31T20:57:03.110Z,15.59
2022-10-31T20:59:35.360Z,15.58
2022-10-31T21:02:08.687Z,15.53
2022-10-31T21:04:41.050Z,15.51
2022-10-31T21:07:13.248Z,15.53
2022-10-31T21:09:45.457Z,15.53
2022-10-31T21:12:17.597Z,15.48
2022-10-31T21:14:49.882Z,15.46
2022-10-31T21:17:22.001Z,15.44
2022-10-31T21:19:54.274Z,15.43
2022-10-31T21:22:26.826Z,15.42
2022-10-31T21:24:59.058Z,15.41
2022-10-31T21:27:31.665Z,15.40
2022-10-31T21:30:04.293Z,15.36
2022-10-31T21:32:39.460Z,15.32
2022-10-31T21:35:12.317Z,15.30
2022-10-31T21:37:44.707Z,15.27
2022-10-31T21:40:17.550Z,15.21
2022-10-31T21:42:49.737Z,15.16
2022-10-31T21:45:22.045Z,15.15
2022-10-31T21:47:54.242Z,15.14
2022-10-31T21:50:26.458Z,15.13
2022-10-31T21:53:18.747Z,15.12
2022-10-31T21:55:50.896Z,15.09
2022-10-31T21:58:23.286Z,15.06
2022-10-31T22:00:55.569Z,15.03
2022-10-31T22:03:27.782Z,15.00
2022-10-31T22:06:05.236Z,14.99
2022-10-31T22:08:37.494Z,14.95
2022-10-31T22:11:13.757Z,14.94
2022-10-31T22:13:47.769Z,14.92
2022-10-31T22:16:21.728Z,14.89
2022-10-31T22:18:57.215Z,14.85
2022-10-31T22:21:30.976Z,14.84
2022-10-31T22:24:05.068Z,14.85
2022-10-31T22:26:40.680Z,14.87
2022-10-31T22:29:16.123Z,14.86
2022-10-31T22:31:52.032Z,14.88
2022-10-31T22:34:27.542Z,14.87
2022-10-31T22:36:59.690Z,14.87
2022-10-31T22:39:31.824Z,14.85
2022-10-31T22:42:03.985Z,14.86
2022-10-31T22:44:36.165Z,14.86
2022-10-31T22:47:08.338Z,14.87
2022-10-31T22:49:40.617Z,14.88
2022-10-31T22:52:13.301Z,14.87
2022-10-31T22:54:45.442Z,14.86
2022-10-31T22:57:17.666Z,14.86
2022-10-31T22:59:50.590Z,14.85
2022-10-31T23:02:23.449Z,14.83
2022-10-31T23:04:55.747Z,14.80
2022-10-31T23:07:32.097Z,14.79
2022-10-31T23:10:05.708Z,14.75
2022-10-31T23:12:55.331Z,14.72
2022-10-31T23:15:27.601Z,14.67
2022-10-31T23:18:01.045Z,14.62
2022-10-31T23:20:33.345Z,14.57
2022-10-31T23:23:05.639Z,14.55
2022-10-31T23:25:55.170Z,14.51
2022-10-31T23:28:27.339Z,14.48
2022-10-31T23:30:59.479Z,14.47
2022-10-31T23:33:32.171Z,14.45
2022-10-31T23:36:04.439Z,14.42
2022-10-31T23:38:36.579Z,14.40
2022-10-31T23:41:08.712Z,14.38
2022-10-31T23:43:40.953Z,14.35
2022-10-31T23:46:13.274Z,14.34
2022-10-31T23:48:48.322Z,14.32
2022-10-31T23:51:20.569Z,14.31
2022-10-31T23:53:52.794Z,14.29
2022-10-31T23:56:25.047Z,14.26
2022-10-31T23:58:57.288Z,14.27
